Time;durP1;ratioP1;P1;durP2;ratioP2;P2;SDS_P1;SDS_P2;PMS_P1;PMS_P2;Temp;Humidity;BMP_temperature;BMP_pressure;BME280_temperature;BME280_humidity;BME280_pressure;Samples;Min_cycle;Max_cycle;Signal;HPM_P1;HPM_P2
2021/03/14 00:00:37;;;;;;;150.65;78.67;;;;;;;3.79;67.43;93701.45;1799887;79;21048;-62
2021/03/14 00:03:08;;;;;;;149.72;78.05;;;;;;;3.79;67.45;93702.81;1799939;79;21273;-62
2021/03/14 00:05:38;;;;;;;149.77;76.90;;;;;;;3.82;67.25;93700.59;1799865;79;21084;-62
2021/03/14 00:08:07;;;;;;;141.95;78.05;;;;;;;3.80;67.26;93700.27;1799964;79;21961;-61
2021/03/14 00:10:40;;;;;;;124.40;66.40;;;;;;;3.76;67.05;93700.38;1784877;79;21171;-62
2021/03/14 00:13:13;;;;;;;140.55;71.10;;;;;;;3.71;67.21;93714.47;1799842;79;21152;-62
2021/03/14 00:15:41;;;;;;;148.65;76.60;;;;;;;3.67;67.47;93719.25;1800029;78;22103;-63
2021/03/14 00:18:09;;;;;;;145.12;74.32;;;;;;;3.61;67.72;93716.89;1799833;79;21120;-61
2021/03/14 00:20:38;;;;;;;125.15;65.35;;;;;;;3.52;67.95;93715.97;1803264;79;21672;-62
2021/03/14 00:23:06;;;;;;;108.90;59.15;;;;;;;3.48;68.04;93709.87;1807835;79;21061;-63
2021/03/14 00:25:34;;;;;;;96.35;52.90;;;;;;;3.50;68.24;93712.92;1807840;79;21053;-62
2021/03/14 00:28:03;;;;;;;83.03;45.08;;;;;;;3.59;68.13;93707.63;1807783;79;21354;-62
2021/03/14 00:30:31;;;;;;;109.00;57.25;;;;;;;3.63;67.89;93712.37;1807759;78;21136;-62
2021/03/14 00:32:59;;;;;;;125.60;62.75;;;;;;;3.60;67.92;93704.48;1807761;79;21121;-62
2021/03/14 00:35:27;;;;;;;94.87;52.67;;;;;;;3.56;67.86;93697.02;1807767;78;21061;-62
2021/03/14 00:37:55;;;;;;;92.12;49.98;;;;;;;3.55;67.97;93691.39;1807813;79;21053;-62
2021/03/14 00:40:25;;;;;;;92.27;49.53;;;;;;;3.56;67.93;93688.88;1807753;79;21447;-62
2021/03/14 00:42:58;;;;;;;96.85;50.50;;;;;;;3.54;67.91;93687.15;1807737;79;21085;-62
2021/03/14 00:45:32;;;;;;;92.17;49.83;;;;;;;3.52;67.88;93680.02;1807663;78;21156;-61
2021/03/14 00:48:03;;;;;;;86.10;44.65;;;;;;;3.51;67.96;93679.85;1807911;78;21200;-62
2021/03/14 00:50:37;;;;;;;76.35;39.67;;;;;;;3.54;67.89;93676.88;1807798;79;21085;-61
2021/03/14 00:53:05;;;;;;;68.35;39.08;;;;;;;3.53;67.88;93667.95;1807822;79;21183;-61
2021/03/14 00:55:34;;;;;;;81.97;40.83;;;;;;;3.56;67.91;93666.34;1807738;79;21077;-61
2021/03/14 00:58:03;;;;;;;83.60;40.98;;;;;;;3.58;67.80;93666.09;1807735;78;21058;-62
2021/03/14 01:00:31;;;;;;;65.50;33.92;;;;;;;3.59;67.70;93672.27;1807757;79;21085;-62
2021/03/14 01:02:59;;;;;;;76.28;39.40;;;;;;;3.57;67.70;93668.64;1807808;79;21133;-62
2021/03/14 01:05:27;;;;;;;77.80;42.78;;;;;;;3.54;67.68;93657.85;1807799;79;21164;-61
2021/03/14 01:07:55;;;;;;;74.67;38.08;;;;;;;3.51;67.79;93664.91;1807732;79;21105;-61
2021/03/14 01:10:24;;;;;;;86.92;43.85;;;;;;;3.51;67.82;93651.92;1807854;79;21050;-62
2021/03/14 01:12:52;;;;;;;74.50;38.80;;;;;;;3.48;67.99;93657.44;1807872;79;21089;-62
2021/03/14 01:15:22;;;;;;;94.07;49.05;;;;;;;3.40;68.08;93644.63;1807827;79;21058;-62
2021/03/14 01:17:52;;;;;;;77.25;41.50;;;;;;;3.42;68.27;93647.67;1807854;79;22469;-61
2021/03/14 01:20:22;;;;;;;71.10;38.92;;;;;;;3.46;68.28;93638.08;1808379;78;21180;-61
2021/03/14 01:22:50;;;;;;;69.97;36.10;;;;;;;3.46;68.22;93636.11;1813477;79;21097;-62
2021/03/14 01:25:18;;;;;;;57.43;33.05;;;;;;;3.45;68.22;93631.12;1813524;79;21160;-61
2021/03/14 01:27:47;;;;;;;54.58;31.73;;;;;;;3.43;68.13;93623.99;1812376;79;21164;-61
2021/03/14 01:30:18;;;;;;;83.03;49.35;;;;;;;3.44;68.07;93618.11;1813459;79;21263;-62
2021/03/14 01:32:46;;;;;;;68.07;38.40;;;;;;;3.47;68.00;93615.14;1813427;79;21072;-61
2021/03/14 01:35:15;;;;;;;53.42;30.57;;;;;;;3.48;67.81;93609.87;1813477;79;21065;-61
2021/03/14 01:37:43;;;;;;;41.15;25.55;;;;;;;3.48;67.66;93611.39;1813399;79;21196;-62
2021/03/14 01:40:16;;;;;;;45.90;26.02;;;;;;;3.48;67.47;93622.27;1813554;79;21045;-61
2021/03/14 01:42:46;;;;;;;47.17;27.85;;;;;;;3.49;67.40;93623.79;1813675;79;21192;-62
2021/03/14 01:45:16;;;;;;;55.45;32.08;;;;;;;3.56;67.22;93617.41;1813680;79;21057;-62
2021/03/14 01:47:46;;;;;;;54.77;31.10;;;;;;;3.57;67.05;93606.11;1813600;77;21077;-61
2021/03/14 01:50:20;;;;;;;32.35;19.90;;;;;;;3.61;67.01;93606.77;1813632;79;21081;-61
2021/03/14 01:52:48;;;;;;;38.08;23.70;;;;;;;3.66;66.74;93604.13;1813814;78;21152;-61
2021/03/14 01:55:17;;;;;;;31.07;19.70;;;;;;;3.72;66.45;93592.27;1813667;79;21142;-61
2021/03/14 01:57:45;;;;;;;28.20;17.75;;;;;;;3.81;66.38;93591.05;1813587;78;21072;-62
2021/03/14 02:00:17;;;;;;;22.20;16.42;;;;;;;4.00;66.12;93579.81;1813568;79;21053;-62
2021/03/14 02:02:46;;;;;;;25.52;17.95;;;;;;;4.15;65.89;93578.98;1813711;79;21144;-61
2021/03/14 02:05:17;;;;;;;23.52;15.53;;;;;;;4.29;65.49;93584.58;1813648;78;21062;-60
2021/03/14 02:07:46;;;;;;;26.20;17.20;;;;;;;4.39;64.93;93585.62;1813679;78;21194;-61
2021/03/14 02:10:15;;;;;;;20.65;13.15;;;;;;;4.46;64.61;93584.64;1813553;79;21494;-61
2021/03/14 02:12:58;;;;;;;17.48;12.43;;;;;;;4.45;64.51;93583.12;1813620;79;21057;-61
2021/03/14 02:15:26;;;;;;;20.80;12.98;;;;;;;4.46;64.45;93580.56;1813763;79;21056;-61
2021/03/14 02:17:55;;;;;;;17.05;10.75;;;;;;;4.48;64.28;93569.99;1813641;79;21053;-62
2021/03/14 02:20:26;;;;;;;17.65;12.28;;;;;;;4.48;64.20;93573.48;1813361;79;21192;-60
2021/03/14 02:23:25;;;;;;;27.58;18.27;;;;;;;4.53;64.29;93570.80;1807887;79;21073;-61
2021/03/14 02:26:13;;;;;;;18.15;12.82;;;;;;;4.60;64.26;93566.50;1807940;78;21070;-61
2021/03/14 02:28:43;;;;;;;15.63;10.93;;;;;;;4.59;64.06;93567.70;1807935;79;21049;-62
2021/03/14 02:31:11;;;;;;;25.80;16.80;;;;;;;4.55;64.08;93576.56;1807933;79;21124;-61
2021/03/14 02:33:40;;;;;;;24.95;19.10;;;;;;;4.55;64.14;93575.98;1807862;79;21342;-61
2021/03/14 02:36:10;;;;;;;16.48;11.53;;;;;;;4.57;64.28;93569.49;1807832;79;21120;-62
2021/03/14 02:38:42;;;;;;;17.62;11.55;;;;;;;4.58;64.40;93559.38;1807898;79;21172;-61
2021/03/14 02:41:10;;;;;;;18.20;11.30;;;;;;;4.56;64.34;93557.08;1779839;79;21128;-61
2021/03/14 02:43:38;;;;;;;36.42;19.05;;;;;;;4.60;64.31;93554.25;1807916;79;21105;-62
2021/03/14 02:46:06;;;;;;;33.42;21.45;;;;;;;4.56;63.93;93561.16;1807864;79;21379;-61
2021/03/14 02:48:37;;;;;;;33.15;18.95;;;;;;;4.55;63.92;93558.28;1807769;78;21149;-62
2021/03/14 02:51:06;;;;;;;38.00;21.73;;;;;;;4.53;64.05;93566.13;1807912;79;21081;-61
2021/03/14 02:53:34;;;;;;;24.18;15.23;;;;;;;4.53;64.17;93552.51;1808002;79;21470;-61
2021/03/14 02:56:02;;;;;;;22.87;15.05;;;;;;;4.54;64.10;93554.62;1807926;79;21046;-61
2021/03/14 02:58:30;;;;;;;21.85;13.75;;;;;;;4.51;64.21;93543.25;1779315;79;21425;-60
2021/03/14 03:00:58;;;;;;;19.92;13.08;;;;;;;4.47;64.38;93542.60;1778917;79;21148;-61
2021/03/14 03:03:26;;;;;;;34.08;18.98;;;;;;;4.44;64.35;93542.87;1807871;79;21061;-61
2021/03/14 03:05:59;;;;;;;45.85;23.85;;;;;;;4.36;64.46;93551.11;1807862;78;21065;-62
2021/03/14 03:08:29;;;;;;;54.08;28.95;;;;;;;4.27;64.58;93536.63;1807984;79;21140;-62
2021/03/14 03:10:59;;;;;;;44.73;24.18;;;;;;;4.25;64.68;93545.83;1807893;79;21430;-62
2021/03/14 03:13:27;;;;;;;35.30;20.00;;;;;;;4.27;64.57;93550.23;1807794;79;21069;-61
2021/03/14 03:15:57;;;;;;;37.67;20.12;;;;;;;4.27;64.56;93546.16;1807867;79;21077;-61
2021/03/14 03:18:25;;;;;;;36.30;22.00;;;;;;;4.24;64.59;93547.78;1807898;78;21045;-61
2021/03/14 03:20:55;;;;;;;38.17;23.47;;;;;;;4.20;64.70;93552.58;1808133;78;21069;-60
2021/03/14 03:23:22;;;;;;;38.73;23.42;;;;;;;4.14;64.77;93543.44;1813598;79;21131;-62
2021/03/14 03:25:50;;;;;;;39.67;22.07;;;;;;;4.11;65.02;93551.11;1813465;78;21124;-61
2021/03/14 03:28:18;;;;;;;44.45;23.45;;;;;;;4.11;65.08;93546.26;1813533;79;21148;-62
2021/03/14 03:30:46;;;;;;;32.98;20.77;;;;;;;4.09;65.31;93541.23;1813545;79;21046;-61
2021/03/14 03:33:14;;;;;;;40.45;22.50;;;;;;;4.06;65.54;93546.80;1813580;79;21053;-62
2021/03/14 03:35:43;;;;;;;36.80;21.48;;;;;;;3.98;65.77;93546.25;1813552;79;21380;-61
2021/03/14 03:38:11;;;;;;;34.15;20.65;;;;;;;3.93;65.80;93541.36;1813489;79;21116;-62
2021/03/14 03:40:39;;;;;;;35.08;20.40;;;;;;;3.86;65.79;93532.64;1813508;79;21112;-60
2021/03/14 03:43:27;;;;;;;34.78;20.27;;;;;;;3.78;66.07;93536.75;1813533;79;21144;-61
2021/03/14 03:45:57;;;;;;;37.10;21.82;;;;;;;3.71;66.27;93533.64;1813699;79;21476;-61
2021/03/14 03:48:42;;;;;;;40.23;22.35;;;;;;;3.62;66.44;93524.01;1813587;77;21493;-62
2021/03/14 03:51:11;;;;;;;43.85;24.90;;;;;;;3.58;66.55;93528.02;1813513;79;21137;-61
2021/03/14 03:53:39;;;;;;;45.63;24.12;;;;;;;3.56;66.74;93523.03;1813547;79;21108;-61
2021/03/14 03:56:07;;;;;;;33.73;22.20;;;;;;;3.53;66.76;93518.43;1813520;79;21557;-61
2021/03/14 03:58:35;;;;;;;43.23;25.12;;;;;;;3.53;66.96;93514.97;1786762;79;21049;-62
2021/03/14 04:01:03;;;;;;;37.38;24.20;;;;;;;3.56;66.82;93510.02;1813486;78;21370;-61
2021/03/14 04:03:32;;;;;;;39.05;22.85;;;;;;;3.56;66.78;93502.64;1813514;79;21143;-61
2021/03/14 04:05:59;;;;;;;41.05;24.50;;;;;;;3.49;66.92;93496.03;1748767;79;21124;-61
2021/03/14 04:08:28;;;;;;;41.00;22.87;;;;;;;3.41;67.16;93480.97;1813499;79;21164;-62
2021/03/14 04:10:56;;;;;;;40.48;24.35;;;;;;;3.38;67.44;93481.83;1761667;79;21077;-62
2021/03/14 04:13:25;;;;;;;41.55;23.62;;;;;;;3.35;67.57;93479.95;1813511;79;21360;-61
2021/03/14 04:15:53;;;;;;;36.77;22.67;;;;;;;3.38;67.91;93487.27;1813420;79;21069;-61
2021/03/14 04:18:21;;;;;;;37.75;22.17;;;;;;;3.39;67.96;93488.18;1813487;79;21077;-62
2021/03/14 04:20:50;;;;;;;40.12;25.90;;;;;;;3.36;68.17;93489.63;1809794;79;21133;-61
2021/03/14 04:23:21;;;;;;;43.70;26.25;;;;;;;3.25;68.25;93491.91;1813418;79;21112;-61
2021/03/14 04:25:55;;;;;;;41.42;25.12;;;;;;;3.20;68.46;93498.63;1813675;79;22366;-62
2021/03/14 04:28:25;;;;;;;48.63;26.90;;;;;;;3.16;68.63;93499.91;1813597;79;21096;-62
2021/03/14 04:30:53;;;;;;;41.92;23.90;;;;;;;3.15;68.78;93486.94;1813622;78;21057;-63
2021/03/14 04:33:22;;;;;;;44.00;24.02;;;;;;;3.18;68.61;93475.78;1813546;79;21092;-62
2021/03/14 04:35:51;;;;;;;44.42;25.20;;;;;;;3.21;68.60;93479.02;1813510;79;21136;-62
2021/03/14 04:38:19;;;;;;;39.58;22.65;;;;;;;3.25;68.65;93466.84;1761575;79;21338;-62
2021/03/14 04:40:47;;;;;;;40.20;24.10;;;;;;;3.29;68.48;93469.47;1761309;79;21061;-62
2021/03/14 04:43:14;;;;;;;35.90;21.00;;;;;;;3.33;68.36;93467.40;1813535;79;21093;-61
2021/03/14 04:45:44;;;;;;;30.65;18.80;;;;;;;3.32;68.10;93470.73;1813536;78;21077;-61
2021/03/14 04:48:16;;;;;;;38.08;23.00;;;;;;;3.27;68.04;93467.77;1813476;77;21077;-62
2021/03/14 04:50:45;;;;;;;38.63;24.35;;;;;;;3.24;68.16;93459.14;1763435;79;22096;-61
2021/03/14 04:53:13;;;;;;;38.73;23.55;;;;;;;3.17;68.32;93451.16;1813448;79;21057;-61
2021/03/14 04:55:42;;;;;;;33.53;19.00;;;;;;;3.15;68.37;93450.84;1813510;79;21171;-62
2021/03/14 04:58:16;;;;;;;39.13;25.12;;;;;;;3.10;68.36;93437.80;1813562;79;21560;-62
2021/03/14 05:00:44;;;;;;;76.62;42.30;;;;;;;3.02;68.64;93448.70;1813491;79;21072;-61
2021/03/14 05:03:13;;;;;;;78.97;43.28;;;;;;;3.00;69.00;93427.98;1813477;79;21263;-61
2021/03/14 05:05:43;;;;;;;180.90;87.53;;;;;;;2.95;69.18;93439.37;1813430;79;21137;-62
2021/03/14 05:08:12;;;;;;;126.55;64.05;;;;;;;2.84;69.53;93428.06;1813486;79;21160;-62
2021/03/14 05:10:40;;;;;;;74.55;41.70;;;;;;;2.76;69.87;93403.64;1813471;79;21231;-62
2021/03/14 05:13:09;;;;;;;57.43;30.20;;;;;;;2.69;70.24;93437.78;1813477;79;21156;-62
2021/03/14 05:15:39;;;;;;;64.90;34.38;;;;;;;2.65;70.40;93389.62;1813502;78;21171;-62
2021/03/14 05:18:13;;;;;;;56.28;29.20;;;;;;;2.64;70.69;93375.84;1786668;79;21156;-62
2021/03/14 05:20:41;;;;;;;55.40;32.70;;;;;;;2.67;70.94;93450.41;1813526;79;21177;-61
2021/03/14 05:23:09;;;;;;;64.60;35.08;;;;;;;2.65;70.71;93423.55;1813282;79;21251;-62
2021/03/14 05:25:36;;;;;;;53.33;28.60;;;;;;;2.65;70.90;93395.05;1786682;79;21052;-61
2021/03/14 05:28:05;;;;;;;41.35;24.18;;;;;;;2.71;70.81;93438.11;1813478;78;22606;-62
2021/03/14 05:30:35;;;;;;;40.30;22.17;;;;;;;2.74;70.73;93427.75;1813418;79;21073;-62
2021/03/14 05:33:03;;;;;;;48.17;27.48;;;;;;;2.77;70.65;93412.73;1813434;78;21053;-61
2021/03/14 05:35:31;;;;;;;36.90;22.22;;;;;;;2.85;70.63;93435.02;1813532;79;21109;-62
2021/03/14 05:38:00;;;;;;;32.85;22.00;;;;;;;2.84;70.42;93432.14;1813496;78;21103;-61
2021/03/14 05:40:28;;;;;;;34.38;22.65;;;;;;;2.86;70.42;93430.50;1813433;79;21247;-62
2021/03/14 05:42:58;;;;;;;71.97;38.80;;;;;;;2.97;70.25;93442.42;1813404;79;21081;-62
2021/03/14 05:45:28;;;;;;;50.45;28.38;;;;;;;3.03;70.05;93436.03;1813428;79;21069;-62
2021/03/14 05:47:57;;;;;;;62.13;32.67;;;;;;;3.05;69.82;93441.05;1813405;77;21062;-62
2021/03/14 05:50:28;;;;;;;58.02;34.00;;;;;;;3.10;69.87;93460.30;1813483;79;21041;-62
2021/03/14 05:52:56;;;;;;;64.07;36.70;;;;;;;3.22;69.81;93460.16;1813510;79;21196;-62
2021/03/14 05:55:25;;;;;;;64.40;37.30;;;;;;;3.28;69.62;93462.50;1813404;79;21073;-62
2021/03/14 05:57:55;;;;;;;64.95;41.10;;;;;;;3.34;69.45;93466.20;1813394;79;21080;-62
2021/03/14 06:00:27;;;;;;;57.98;34.65;;;;;;;3.40;69.31;93459.06;1813417;79;21184;-62
2021/03/14 06:02:57;;;;;;;62.07;36.80;;;;;;;3.48;69.17;93470.66;1813753;79;21053;-61
2021/03/14 06:05:29;;;;;;;63.60;34.80;;;;;;;3.56;68.65;93482.83;1813521;79;21256;-61
2021/03/14 06:07:58;;;;;;;57.25;32.17;;;;;;;3.59;68.72;93479.24;1813425;79;21187;-61
2021/03/14 06:10:28;;;;;;;83.58;42.33;;;;;;;3.67;68.39;93474.52;1813491;79;21192;-62
2021/03/14 06:12:56;;;;;;;76.55;39.92;;;;;;;3.71;68.20;93462.19;1813631;79;21052;-63
2021/03/14 06:15:25;;;;;;;82.05;44.05;;;;;;;3.73;68.07;93471.41;1813448;79;21057;-61
2021/03/14 06:17:53;;;;;;;78.05;43.45;;;;;;;3.69;68.07;93470.77;1786533;79;21199;-62
2021/03/14 06:20:44;;;;;;;84.28;44.75;;;;;;;3.71;68.09;93471.70;1813354;78;21140;-61
2021/03/14 06:23:17;;;;;;;77.58;42.83;;;;;;;3.77;67.97;93459.08;1813266;79;21224;-62
2021/03/14 06:25:50;;;;;;;75.22;40.78;;;;;;;3.76;67.85;93471.94;1813368;79;21076;-61
2021/03/14 06:28:33;;;;;;;61.68;34.30;;;;;;;3.75;67.76;93473.72;1813012;79;21653;-62
2021/03/14 06:31:22;;;;;;;65.08;34.33;;;;;;;3.72;67.68;93452.83;1790385;79;21279;-62
2021/03/14 06:33:52;;;;;;;67.65;37.00;;;;;;;3.75;67.57;93470.41;1813600;78;21065;-62
2021/03/14 06:36:22;;;;;;;56.55;32.78;;;;;;;3.78;67.58;93474.20;1813597;78;21153;-63
2021/03/14 06:38:50;;;;;;;53.45;29.07;;;;;;;3.84;67.44;93467.05;1813688;79;21149;-61
2021/03/14 06:41:19;;;;;;;46.63;26.60;;;;;;;3.92;67.24;93462.31;1813571;79;21176;-61
2021/03/14 06:43:52;;;;;;;35.83;23.00;;;;;;;3.91;67.24;93445.80;1813535;79;21190;-62
2021/03/14 06:46:26;;;;;;;47.33;28.38;;;;;;;3.99;67.00;93449.84;1813457;79;21124;-61
2021/03/14 06:49:14;;;;;;;49.77;31.97;;;;;;;4.10;67.03;93430.45;1813577;77;21069;-62
2021/03/14 06:51:44;;;;;;;67.72;41.30;;;;;;;4.20;67.06;93442.36;1813737;78;21533;-62
2021/03/14 06:54:28;;;;;;;59.90;34.38;;;;;;;4.36;66.83;93443.58;1813663;79;21164;-61
2021/03/14 06:57:03;;;;;;;62.83;36.10;;;;;;;4.46;66.31;93431.56;1813576;78;21267;-62
2021/03/14 06:59:42;;;;;;;49.40;27.80;;;;;;;4.60;66.29;93439.26;1813542;78;21163;-62
2021/03/14 07:02:14;;;;;;;36.28;23.05;;;;;;;4.80;66.16;93414.47;1813623;78;21168;-62
2021/03/14 07:04:55;;;;;;;33.58;22.27;;;;;;;5.05;66.03;93405.58;1813768;79;21073;-62
2021/03/14 07:07:32;;;;;;;31.17;20.30;;;;;;;5.30;65.76;93387.70;1810580;79;21093;-62
2021/03/14 07:10:08;;;;;;;29.60;19.00;;;;;;;5.60;64.86;93380.14;1813586;79;22210;-62
2021/03/14 07:12:42;;;;;;;30.02;19.90;;;;;;;5.91;64.16;93367.23;1813549;79;21060;-62
2021/03/14 07:15:16;;;;;;;32.65;21.97;;;;;;;6.19;63.38;93378.37;1813609;79;21145;-62
2021/03/14 07:17:51;;;;;;;25.57;16.95;;;;;;;6.42;62.51;93379.17;1813583;79;21052;-62
2021/03/14 07:20:25;;;;;;;39.40;23.67;;;;;;;6.69;62.24;93377.84;1813560;79;21180;-62
2021/03/14 07:23:05;;;;;;;32.15;20.10;;;;;;;7.00;61.78;93387.98;1811605;79;21256;-61
2021/03/14 07:25:38;;;;;;;29.85;19.35;;;;;;;7.29;61.00;93379.44;1807880;79;21077;-61
2021/03/14 07:28:06;;;;;;;30.43;19.90;;;;;;;7.53;60.17;93374.22;1807861;79;21093;-62
2021/03/14 07:30:34;;;;;;;32.45;20.20;;;;;;;7.71;59.38;93370.05;1807863;79;21065;-61
2021/03/14 07:33:02;;;;;;;26.35;18.52;;;;;;;7.88;58.93;93360.25;1807880;78;21145;-62
2021/03/14 07:35:30;;;;;;;23.35;16.55;;;;;;;8.05;58.57;93368.24;1807843;79;21257;-62
2021/03/14 07:37:58;;;;;;;23.50;16.17;;;;;;;8.26;58.34;93356.28;1807731;79;21151;-61
2021/03/14 07:40:29;;;;;;;27.00;17.77;;;;;;;8.49;57.93;93360.26;1778721;79;21145;-62
2021/03/14 07:42:57;;;;;;;15.88;11.22;;;;;;;8.71;57.42;93335.44;1807901;79;21089;-62
2021/03/14 07:45:25;;;;;;;15.55;10.65;;;;;;;8.93;56.15;93359.16;1807946;79;21490;-62
2021/03/14 07:47:54;;;;;;;12.78;9.75;;;;;;;9.12;55.09;93359.15;1807813;78;21262;-62
2021/03/14 07:50:27;;;;;;;16.70;8.35;;;;;;;9.32;55.47;93344.17;1807771;79;21149;-61
2021/03/14 07:53:06;;;;;;;13.48;8.48;;;;;;;9.60;54.98;93352.28;1807730;79;21065;-62
2021/03/14 07:55:46;;;;;;;10.28;6.67;;;;;;;9.97;54.56;93356.12;1873534;76;22438;-62
2021/03/14 07:58:13;;;;;;;8.85;5.67;;;;;;;10.21;51.85;93355.37;1841596;77;21517;-63
2021/03/14 08:00:44;;;;;;;13.22;6.65;;;;;;;10.47;51.05;93353.48;1841609;78;21132;-62
2021/03/14 08:03:12;;;;;;;11.38;6.00;;;;;;;10.68;50.09;93348.16;1841596;77;21604;-62
2021/03/14 08:05:50;;;;;;;12.10;6.62;;;;;;;10.85;49.55;93337.48;1841553;78;21042;-62
2021/03/14 08:08:30;;;;;;;15.00;6.95;;;;;;;11.05;49.05;93347.86;1841574;78;21112;-63
2021/03/14 08:10:59;;;;;;;7.30;5.53;;;;;;;11.24;49.21;93354.58;1841675;78;20942;-63
2021/03/14 08:13:36;;;;;;;6.47;5.50;;;;;;;11.34;48.61;93369.68;1841493;78;21244;-62
2021/03/14 08:16:06;;;;;;;7.78;5.33;;;;;;;11.42;48.29;93346.61;1841549;78;21046;-63
2021/03/14 08:18:41;;;;;;;8.10;5.55;;;;;;;11.50;47.92;93358.08;1841567;78;21581;-61
2021/03/14 08:21:30;;;;;;;15.45;5.15;;;;;;;11.64;48.25;93353.72;1841571;78;21041;-63
2021/03/14 08:24:00;;;;;;;8.85;4.87;;;;;;;11.74;47.29;93358.58;1838788;77;21105;-62
2021/03/14 08:26:32;;;;;;;6.28;5.50;;;;;;;11.77;47.30;93373.39;1841543;78;22113;-62
2021/03/14 08:29:13;;;;;;;;;;;;;;;11.77;47.59;93362.37;1813936;78;21112;-62
2021/03/14 08:31:54;;;;;;;7.72;5.15;;;;;;;11.73;47.94;93359.82;1841206;78;20218;-62
2021/03/14 08:34:33;;;;;;;7.03;5.70;;;;;;;11.68;48.04;93352.27;1840141;78;21174;-63
2021/03/14 08:37:04;;;;;;;6.62;5.10;;;;;;;11.63;48.69;93364.00;1841599;77;21175;-62
2021/03/14 08:39:41;;;;;;;7.08;5.12;;;;;;;11.48;49.32;93368.06;1813558;78;21155;-63
2021/03/14 08:42:20;;;;;;;4.40;4.00;;;;;;;11.32;50.58;93357.02;1814226;78;21085;-63
2021/03/14 08:44:50;;;;;;;5.85;4.92;;;;;;;11.27;51.18;93367.36;1840984;78;21144;-63
2021/03/14 08:47:22;;;;;;;7.85;6.03;;;;;;;11.29;51.83;93374.52;1831025;77;21046;-63
2021/03/14 08:49:54;;;;;;;4.95;3.55;;;;;;;11.37;52.88;93385.22;1811903;78;21085;-63
2021/03/14 08:52:25;;;;;;;3.05;2.70;;;;;;;11.46;51.52;93396.10;1779661;79;22206;-64
2021/03/14 08:55:03;;;;;;;3.47;3.17;;;;;;;11.49;50.42;93386.86;1805509;78;21085;-62
2021/03/14 08:57:32;;;;;;;5.42;4.03;;;;;;;11.39;50.82;93389.62;1808540;79;21062;-62
2021/03/14 09:00:02;;;;;;;4.25;3.87;;;;;;;11.29;50.94;93392.41;1808475;78;21089;-62
2021/03/14 09:02:34;;;;;;;5.45;4.65;;;;;;;11.22;51.72;93390.69;1808242;78;21085;-63
2021/03/14 09:05:14;;;;;;;4.58;4.15;;;;;;;11.17;52.18;93396.91;1807288;79;21361;-63
2021/03/14 09:08:01;;;;;;;8.67;5.87;;;;;;;11.16;52.35;93380.99;1807199;79;21156;-62
2021/03/14 09:10:41;;;;;;;7.67;5.42;;;;;;;11.15;54.15;93385.63;1807880;79;21069;-64
2021/03/14 09:13:13;;;;;;;5.22;3.67;;;;;;;11.07;54.24;93396.29;1806676;79;21085;-63
2021/03/14 09:15:49;;;;;;;7.08;6.15;;;;;;;10.96;53.20;93401.64;1806852;79;21069;-63
2021/03/14 09:18:26;;;;;;;4.00;3.60;;;;;;;10.84;54.19;93404.11;1806455;79;22104;-62
2021/03/14 09:21:01;;;;;;;4.30;3.90;;;;;;;10.66;56.04;93409.13;1807456;78;21168;-63
2021/03/14 09:23:41;;;;;;;4.10;3.70;;;;;;;10.45;56.56;93410.34;1806011;78;21088;-66
2021/03/14 09:26:10;;;;;;;5.40;3.52;;;;;;;10.19;60.10;93408.05;1807881;79;21094;-63
2021/03/14 09:28:45;;;;;;;4.53;4.22;;;;;;;9.95;61.39;93403.91;1807895;79;21144;-63
2021/03/14 09:31:15;;;;;;;6.05;5.45;;;;;;;9.96;62.60;93408.17;1807936;79;21192;-62
2021/03/14 09:33:45;;;;;;;9.95;6.83;;;;;;;10.04;63.34;93412.06;1779759;79;21173;-62
2021/03/14 09:36:22;;;;;;;5.08;4.67;;;;;;;10.12;64.36;93403.56;1781092;79;21057;-63
2021/03/14 09:38:59;;;;;;;5.85;5.25;;;;;;;10.17;63.33;93403.66;1807550;79;21172;-62
2021/03/14 09:41:44;;;;;;;4.80;4.30;;;;;;;10.35;64.28;93406.81;1805520;79;21545;-63
2021/03/14 09:44:18;;;;;;;5.10;4.60;;;;;;;10.51;62.96;93393.92;1805329;79;21404;-62
2021/03/14 09:47:00;;;;;;;3.60;3.40;;;;;;;10.66;60.91;93395.98;1805959;79;21156;-63
2021/03/14 09:49:33;;;;;;;4.70;3.72;;;;;;;10.83;60.49;93403.97;1800799;78;21061;-63
2021/03/14 09:52:05;;;;;;;2.92;2.72;;;;;;;11.04;58.87;93395.88;1807903;79;21191;-62
2021/03/14 09:54:34;;;;;;;2.98;2.55;;;;;;;11.14;58.20;93397.23;1778762;79;21156;-62
2021/03/14 09:57:03;;;;;;;2.60;2.40;;;;;;;11.03;57.50;93390.84;1807878;79;21448;-62
2021/03/14 09:59:35;;;;;;;3.60;3.27;;;;;;;10.80;57.83;93406.31;1790156;79;21121;-63
2021/03/14 10:02:13;;;;;;;3.95;3.65;;;;;;;10.61;58.27;93402.94;1873743;75;22739;-63
2021/03/14 10:04:50;;;;;;;5.87;4.78;;;;;;;10.37;59.30;93408.46;1838074;78;21454;-64
2021/03/14 10:07:25;;;;;;;7.60;6.42;;;;;;;10.13;59.84;93413.34;1841566;77;21405;-63
2021/03/14 10:09:53;;;;;;;12.75;8.35;;;;;;;9.87;60.51;93414.52;1811371;77;21498;-61
2021/03/14 10:12:23;;;;;;;8.93;6.03;;;;;;;9.68;61.90;93423.41;1841022;78;21403;-62
2021/03/14 10:14:51;;;;;;;6.45;4.65;;;;;;;9.53;62.94;93426.16;1841569;78;21058;-62
2021/03/14 10:17:20;;;;;;;4.95;3.95;;;;;;;9.32;63.93;93427.27;1841682;78;21486;-62
2021/03/14 10:19:50;;;;;;;9.48;5.95;;;;;;;9.08;64.96;93418.30;1811467;78;21176;-62
2021/03/14 10:22:29;;;;;;;5.05;4.12;;;;;;;8.93;66.45;93418.13;1841578;78;21542;-63
2021/03/14 10:25:03;;;;;;;14.47;8.73;;;;;;;9.08;67.40;93411.45;1814468;78;21057;-63
2021/03/14 10:27:32;;;;;;;5.50;4.40;;;;;;;9.68;67.50;93402.82;1839781;78;21132;-62
2021/03/14 10:30:04;;;;;;;7.90;5.70;;;;;;;10.32;65.07;93387.89;1834568;78;21070;-63
2021/03/14 10:32:46;;;;;;;4.97;4.55;;;;;;;10.98;63.13;93396.41;1839752;78;21375;-63
2021/03/14 10:35:16;;;;;;;;;;;;;;;11.44;61.24;93390.93;1843084;77;21195;-62
2021/03/14 10:37:44;;;;;;;2.52;2.33;;;;;;;12.03;60.94;93382.36;1841614;78;20230;-64
2021/03/14 10:40:23;;;;;;;4.00;2.70;;;;;;;12.64;57.42;93378.19;1840258;77;21137;-63
2021/03/14 10:42:53;;;;;;;3.25;2.55;;;;;;;13.19;56.45;93379.09;1841514;78;21494;-63
2021/03/14 10:45:29;;;;;;;2.92;2.58;;;;;;;13.78;54.30;93379.78;1840606;77;21339;-63
2021/03/14 10:48:05;;;;;;;3.25;2.40;;;;;;;14.45;52.52;93375.91;1838837;78;21082;-62
2021/03/14 10:50:41;;;;;;;2.50;2.23;;;;;;;15.00;50.01;93372.30;1808510;78;21529;-63
2021/03/14 10:53:14;;;;;;;;;;;;;;;15.47;48.81;93376.04;1809970;79;21057;-63
2021/03/14 10:55:45;;;;;;;4.80;3.45;;;;;;;15.82;47.08;93375.34;1804242;79;20195;-64
2021/03/14 10:58:17;;;;;;;4.60;3.25;;;;;;;16.28;45.66;93381.57;1808526;78;22244;-64
2021/03/14 11:00:52;;;;;;;5.50;3.40;;;;;;;16.48;44.24;93387.50;1805817;79;21181;-64
2021/03/14 11:03:37;;;;;;;6.12;3.87;;;;;;;16.34;44.08;93380.91;1779281;79;21069;-63
2021/03/14 11:06:15;;;;;;;;;;;;;;;15.75;44.46;93376.63;1811242;79;21161;-64
2021/03/14 11:09:02;;;;;;;11.18;6.60;;;;;;;14.98;45.70;93374.17;1808557;78;20213;-63
2021/03/14 11:11:41;;;;;;;4.00;3.22;;;;;;;14.27;47.67;93379.07;1808524;79;22187;-63
2021/03/14 11:14:41;;;;;;;5.42;4.30;;;;;;;13.69;48.90;93373.09;1807867;79;21113;-62
2021/03/14 11:17:16;;;;;;;8.80;6.35;;;;;;;13.14;50.05;93371.55;1803304;79;21066;-62
2021/03/14 11:19:48;;;;;;;17.62;11.70;;;;;;;12.68;51.61;93368.30;1807113;79;21609;-62
2021/03/14 11:22:19;;;;;;;15.32;9.68;;;;;;;12.40;52.56;93377.02;1778804;79;21104;-63
2021/03/14 11:24:50;;;;;;;12.90;9.25;;;;;;;12.18;53.30;93387.89;1808131;79;22204;-62
2021/03/14 11:27:18;;;;;;;11.48;8.13;;;;;;;11.91;54.14;93382.90;1807794;78;21207;-62
2021/03/14 11:29:46;;;;;;;10.48;7.22;;;;;;;11.62;55.67;93383.15;1807874;79;21125;-62
2021/03/14 11:32:16;;;;;;;7.95;5.72;;;;;;;11.36;56.06;93386.47;1807555;79;21612;-63
2021/03/14 11:34:46;;;;;;;9.15;7.00;;;;;;;11.02;56.04;93383.83;1778096;79;21124;-63
2021/03/14 11:37:25;;;;;;;10.63;7.00;;;;;;;10.77;56.67;93382.52;1738938;81;22440;-63
2021/03/14 11:39:55;;;;;;;12.33;7.12;;;;;;;10.65;56.96;93371.09;1762966;79;21570;-61
2021/03/14 11:42:25;;;;;;;12.47;8.23;;;;;;;10.51;57.38;93370.55;1807661;79;21094;-63
2021/03/14 11:45:11;;;;;;;11.25;7.00;;;;;;;10.44;58.10;93375.83;1805958;79;21140;-61
2021/03/14 11:47:40;;;;;;;9.88;7.17;;;;;;;10.37;59.01;93371.34;1808066;78;21101;-63
2021/03/14 11:50:15;;;;;;;14.63;10.63;;;;;;;10.28;59.44;93371.45;1790167;79;21200;-62